Time;durP1;ratioP1;P1;durP2;ratioP2;P2;SDS_P1;SDS_P2;PMS_P1;PMS_P2;Temp;Humidity;BMP_temperature;BMP_pressure;BME280_temperature;BME280_humidity;BME280_pressure;Samples;Min_cycle;Max_cycle;Signal;HPM_P1;HPM_P2
2022/12/05 00:01:38;;;;;;;5.70;3.45;;;;;;;7.09;57.34;94733.66;5025872;28;20049;-75
2022/12/05 00:04:05;;;;;;;7.32;3.35;;;;;;;7.11;57.22;94734.16;5027804;28;20446;-75
2022/12/05 00:06:33;;;;;;;7.28;3.40;;;;;;;7.02;57.13;94728.66;5028980;28;20847;-76
2022/12/05 00:09:00;;;;;;;5.75;3.60;;;;;;;6.94;57.19;94718.63;5026787;28;20469;-76
2022/12/05 00:11:30;;;;;;;5.10;3.47;;;;;;;6.93;57.31;94708.31;5029066;28;20052;-75
2022/12/05 00:13:58;;;;;;;5.15;3.47;;;;;;;7.09;57.15;94733.66;5027733;28;20037;-75
2022/12/05 00:16:26;;;;;;;8.25;4.07;;;;;;;6.74;57.35;94681.63;5027177;28;20048;-75
2022/12/05 00:18:52;;;;;;;6.78;4.35;;;;;;;7.00;57.28;94727.31;5027989;28;20163;-76
2022/12/05 00:21:21;;;;;;;8.68;5.05;;;;;;;6.92;57.33;94715.44;5025857;28;20607;-75
2022/12/05 00:23:47;;;;;;;9.10;4.65;;;;;;;7.04;57.02;94729.19;5024746;28;20044;-75
2022/12/05 00:26:13;;;;;;;10.00;5.40;;;;;;;6.88;56.90;94713.59;5025440;28;20044;-75
2022/12/05 00:28:39;;;;;;;9.23;5.13;;;;;;;7.05;57.05;94743.97;5027940;28;20064;-74
2022/12/05 00:31:19;;;;;;;12.35;5.45;;;;;;;6.91;56.74;94726.28;5026275;28;20028;-74
2022/12/05 00:33:45;;;;;;;10.05;4.43;;;;;;;6.83;56.90;94719.69;5026309;28;20440;-75
2022/12/05 00:36:15;;;;;;;8.57;4.78;;;;;;;7.03;56.77;94753.25;5026247;28;20507;-76
2022/12/05 00:38:41;;;;;;;8.75;4.78;;;;;;;6.99;56.93;94750.34;5028185;28;20041;-75
2022/12/05 00:41:09;;;;;;;6.95;4.53;;;;;;;6.85;57.00;94736.06;5025198;28;20437;-75
2022/12/05 00:43:35;;;;;;;5.13;3.75;;;;;;;6.91;57.10;94745.59;5028821;28;20119;-76
2022/12/05 00:46:05;;;;;;;5.82;4.43;;;;;;;6.86;57.05;94735.81;5024531;28;20078;-75
2022/12/05 00:48:31;;;;;;;9.38;4.53;;;;;;;6.93;57.10;94754.06;5015650;28;20048;-76
2022/12/05 00:51:05;;;;;;;9.02;5.00;;;;;;;6.93;57.26;94758.56;5026491;28;20037;-74
2022/12/05 00:53:31;;;;;;;8.77;5.90;;;;;;;6.91;56.94;94747.44;5026307;28;20036;-76
2022/12/05 00:56:02;;;;;;;13.32;6.57;;;;;;;6.77;56.95;94721.56;5026050;28;20091;-75
2022/12/05 00:58:28;;;;;;;8.00;5.10;;;;;;;6.93;57.12;94742.69;5028075;28;20037;-76
2022/12/05 01:00:53;;;;;;;5.53;4.15;;;;;;;6.95;56.82;94735.25;5020788;28;20126;-74
2022/12/05 01:03:18;;;;;;;6.90;4.15;;;;;;;6.85;57.11;94721.00;5027395;28;20532;-76
2022/12/05 01:05:44;;;;;;;6.97;3.92;;;;;;;6.93;56.90;94734.75;5022818;28;20444;-76
2022/12/05 01:08:09;;;;;;;5.28;3.40;;;;;;;6.77;56.98;94707.53;5027087;28;20033;-76
2022/12/05 01:10:35;;;;;;;5.25;4.43;;;;;;;6.92;57.00;94731.31;5027231;28;20040;-76
2022/12/05 01:13:00;;;;;;;9.68;4.47;;;;;;;6.93;57.01;94726.81;5027652;28;20053;-77
2022/12/05 01:15:26;;;;;;;7.90;4.93;;;;;;;6.93;56.91;94732.09;5009981;28;20017;-76
2022/12/05 01:17:51;;;;;;;8.90;5.55;;;;;;;6.93;56.94;94724.97;5026718;28;20505;-77
2022/12/05 01:20:17;;;;;;;6.30;4.57;;;;;;;6.94;56.92;94733.69;5027508;28;20324;-76
2022/12/05 01:22:42;;;;;;;7.57;5.10;;;;;;;6.83;56.98;94709.13;5025285;28;20030;-76
2022/12/05 01:25:08;;;;;;;8.43;5.38;;;;;;;6.84;57.04;94708.88;5024720;28;20033;-76
2022/12/05 01:27:33;;;;;;;7.80;4.78;;;;;;;6.89;56.77;94723.13;5024087;28;20042;-76
2022/12/05 01:29:58;;;;;;;9.25;5.25;;;;;;;6.90;57.12;94722.06;5018219;28;20409;-76
2022/12/05 01:32:24;;;;;;;6.68;4.85;;;;;;;6.88;57.03;94710.97;5023814;28;20048;-76
2022/12/05 01:34:49;;;;;;;8.95;5.10;;;;;;;6.93;57.03;94709.09;5028348;28;20191;-76
2022/12/05 01:37:15;;;;;;;7.47;5.40;;;;;;;6.85;57.27;94699.84;5028228;28;20561;-76
2022/12/05 01:39:40;;;;;;;6.68;4.38;;;;;;;6.70;57.29;94676.06;5025926;28;20280;-75
2022/12/05 01:42:06;;;;;;;8.80;4.35;;;;;;;6.86;57.52;94704.06;5026003;28;20038;-76
2022/12/05 01:44:31;;;;;;;7.10;4.45;;;;;;;6.86;57.85;94698.78;5026441;28;20033;-77
2022/12/05 01:46:56;;;;;;;8.00;4.75;;;;;;;6.81;57.64;94698.00;5023938;28;20033;-76
2022/12/05 01:49:30;;;;;;;9.13;4.57;;;;;;;6.70;57.76;94684.00;5010672;28;20820;-77
2022/12/05 01:52:01;;;;;;;9.45;5.20;;;;;;;6.57;57.50;94660.78;5014954;28;20035;-76
2022/12/05 01:54:28;;;;;;;8.00;4.90;;;;;;;6.80;57.25;94694.56;5026574;28;20029;-75
2022/12/05 01:57:02;;;;;;;8.63;5.57;;;;;;;6.78;57.40;94695.91;5020222;28;20446;-76
2022/12/05 01:59:32;;;;;;;7.43;4.78;;;;;;;6.77;57.14;94697.75;5021488;28;20121;-75
2022/12/05 02:01:58;;;;;;;6.82;4.68;;;;;;;6.75;57.31;94699.09;5026659;28;20033;-75
2022/12/05 02:04:26;;;;;;;7.30;4.75;;;;;;;6.77;57.39;94703.03;5023172;28;20180;-75
2022/12/05 02:06:52;;;;;;;7.63;4.68;;;;;;;6.76;56.87;94695.38;5026266;28;20094;-77
2022/12/05 02:09:18;;;;;;;9.07;5.90;;;;;;;6.67;57.04;94691.69;5027418;28;20120;-77
2022/12/05 02:11:57;;;;;;;8.93;5.70;;;;;;;6.74;56.75;94702.78;5026767;28;20499;-76
2022/12/05 02:14:34;;;;;;;11.10;6.22;;;;;;;6.66;56.79;94698.03;5031794;28;20117;-76
2022/12/05 02:17:24;;;;;;;7.78;5.53;;;;;;;6.66;56.87;94705.94;5032370;28;20126;-76
2022/12/05 02:19:53;;;;;;;26.55;8.50;;;;;;;6.61;57.06;94706.75;5028894;28;20037;-76
2022/12/05 02:23:06;;;;;;;10.50;6.55;;;;;;;6.61;57.07;94708.59;5027140;28;20032;-76
2022/12/05 02:25:54;;;;;;;14.43;6.38;;;;;;;6.58;56.92;94717.06;5030864;28;20077;-77
2022/12/05 02:28:43;;;;;;;11.48;6.10;;;;;;;6.23;57.02;94657.09;5024894;28;20092;-76
2022/12/05 02:31:27;;;;;;;7.07;4.97;;;;;;;6.55;57.31;94710.47;5021806;28;20051;-76
2022/12/05 02:34:07;;;;;;;14.18;7.15;;;;;;;6.55;57.36;94705.19;5026435;28;20041;-75
2022/12/05 02:36:44;;;;;;;10.43;6.32;;;;;;;6.56;57.34;94705.97;5017944;28;20540;-75
2022/12/05 02:39:25;;;;;;;10.50;6.53;;;;;;;6.57;57.55;94702.28;5029021;28;20049;-74
2022/12/05 02:42:09;;;;;;;11.50;6.50;;;;;;;6.39;57.46;94661.34;5020284;28;20723;-76
2022/12/05 02:44:41;;;;;;;12.43;7.22;;;;;;;6.50;57.46;94681.41;5026022;28;20068;-76
2022/12/05 02:47:08;;;;;;;15.05;7.15;;;;;;;6.58;57.39;94690.66;5028564;28;20033;-76
2022/12/05 02:49:35;;;;;;;10.82;6.47;;;;;;;6.55;57.22;94684.06;5011339;28;20040;-76
2022/12/05 02:52:04;;;;;;;12.63;7.40;;;;;;;6.58;57.16;94683.50;5030488;28;20602;-76
2022/12/05 02:54:35;;;;;;;13.38;6.85;;;;;;;6.58;57.18;94683.50;5031520;28;20025;-75
2022/12/05 02:57:01;;;;;;;11.63;7.22;;;;;;;6.58;57.10;94683.50;5013160;28;20098;-75
2022/12/05 02:59:27;;;;;;;12.30;7.60;;;;;;;6.50;57.00;94672.69;5031026;28;20041;-75
2022/12/05 03:01:53;;;;;;;11.75;6.60;;;;;;;6.38;57.03;94649.97;5019632;28;20673;-75
2022/12/05 03:04:21;;;;;;;14.23;8.95;;;;;;;6.39;56.99;94650.75;5028407;28;20484;-75
2022/12/05 03:06:50;;;;;;;13.43;7.57;;;;;;;6.53;57.02;94680.06;5029900;28;20056;-75
2022/12/05 03:09:21;;;;;;;13.85;8.43;;;;;;;6.45;56.73;94657.63;5028857;28;20128;-75
2022/12/05 03:11:52;;;;;;;12.18;7.82;;;;;;;6.48;57.28;94683.53;5029957;28;20033;-76
2022/12/05 03:14:22;;;;;;;12.13;7.97;;;;;;;6.31;57.55;94667.94;5029729;28;20129;-76
2022/12/05 03:16:50;;;;;;;14.57;8.15;;;;;;;6.44;57.71;94685.13;5028551;28;20087;-75
2022/12/05 03:20:11;;;;;;;16.63;9.55;;;;;;;6.39;57.63;94675.34;5030202;28;20102;-76
2022/12/05 03:22:42;;;;;;;32.47;12.52;;;;;;;6.39;57.84;94674.53;5022993;28;20033;-77
2022/12/05 03:25:09;;;;;;;32.63;13.27;;;;;;;6.23;58.03;94663.19;5026548;28;20128;-76
2022/12/05 03:28:13;;;;;;;32.60;15.60;;;;;;;5.96;58.08;94629.09;5032592;28;20083;-75
2022/12/05 03:30:41;;;;;;;38.90;15.95;;;;;;;6.30;58.23;94686.72;5030524;28;20497;-76
2022/12/05 03:33:21;;;;;;;71.63;22.63;;;;;;;6.32;58.18;94684.56;5026251;28;20037;-75
2022/12/05 03:36:05;;;;;;;38.15;14.98;;;;;;;6.41;58.45;94691.72;5029019;28;20175;-76
2022/12/05 03:38:33;;;;;;;45.78;17.55;;;;;;;6.37;58.78;94697.78;5030101;28;20051;-75
2022/12/05 03:41:33;;;;;;;46.63;17.55;;;;;;;6.40;58.88;94694.63;5030442;28;20608;-76
2022/12/05 03:44:08;;;;;;;24.63;10.63;;;;;;;6.42;58.87;94695.94;5033897;28;20033;-76
2022/12/05 03:46:42;;;;;;;29.92;13.02;;;;;;;6.46;58.72;94696.19;5028015;28;20041;-76
2022/12/05 03:49:17;;;;;;;21.42;9.88;;;;;;;6.49;58.81;94695.69;5030064;28;20036;-76
2022/12/05 03:51:56;;;;;;;13.93;7.60;;;;;;;6.50;58.74;94697.28;5032557;28;20401;-77
2022/12/05 03:54:26;;;;;;;12.48;7.07;;;;;;;6.14;58.90;94634.91;5030032;28;20084;-76
2022/12/05 03:57:06;;;;;;;12.48;7.53;;;;;;;6.56;59.04;94698.84;5028654;28;20029;-76
2022/12/05 03:59:38;;;;;;;10.25;6.22;;;;;;;6.57;58.79;94695.13;5028750;28;20041;-78
2022/12/05 04:02:11;;;;;;;11.75;6.00;;;;;;;6.58;58.91;94694.09;5030109;28;20049;-76
2022/12/05 04:04:45;;;;;;;8.57;5.57;;;;;;;6.59;58.85;94690.38;5027500;28;20036;-77
2022/12/05 04:07:14;;;;;;;9.45;5.32;;;;;;;6.28;58.75;94635.97;5016997;28;20451;-76
2022/12/05 04:09:48;;;;;;;14.98;7.18;;;;;;;6.60;58.89;94673.47;5029829;28;20053;-75
2022/12/05 04:12:22;;;;;;;12.98;6.30;;;;;;;6.70;58.77;94678.72;5024298;28;20132;-75
2022/12/05 04:14:51;;;;;;;9.85;6.35;;;;;;;6.64;58.77;94666.59;5016791;28;20187;-75
2022/12/05 04:17:45;;;;;;;11.07;7.20;;;;;;;6.57;58.13;94639.63;5029021;28;20033;-76
2022/12/05 04:23:02;;;;;;;8.45;5.10;;;;;;;6.54;58.36;94645.47;5026657;28;20514;-74
2022/12/05 04:25:55;;;;;;;10.80;6.53;;;;;;;6.54;58.24;94640.19;5028312;28;20090;-73
2022/12/05 04:28:31;;;;;;;9.63;5.78;;;;;;;6.55;58.40;94647.06;5026585;28;20592;-75
2022/12/05 04:31:12;;;;;;;8.48;6.03;;;;;;;6.71;58.58;94682.16;5027510;28;20021;-75
2022/12/05 04:34:02;;;;;;;9.40;4.97;;;;;;;6.70;58.50;94678.72;5030352;28;20026;-75
2022/12/05 04:36:34;;;;;;;11.63;6.70;;;;;;;6.69;58.65;94679.81;5028745;28;20595;-76
2022/12/05 04:39:11;;;;;;;9.95;6.00;;;;;;;6.70;58.63;94678.72;5027272;28;20519;-75
2022/12/05 04:41:40;;;;;;;11.00;6.22;;;;;;;6.73;58.88;94685.34;5024167;28;20072;-75
2022/12/05 04:44:12;;;;;;;9.77;6.38;;;;;;;6.56;58.52;94659.19;5025628;28;20530;-76
2022/12/05 04:46:41;;;;;;;8.68;5.05;;;;;;;6.68;58.87;94683.50;5028696;28;20034;-75
2022/12/05 04:49:10;;;;;;;9.20;5.68;;;;;;;6.69;58.58;94679.00;5027014;28;20053;-76
2022/12/05 04:51:38;;;;;;;8.73;5.60;;;;;;;6.69;58.54;94674.50;5029530;28;20044;-76
2022/12/05 04:54:14;;;;;;;8.98;5.43;;;;;;;6.66;58.39;94675.03;5028040;28;20140;-75
2022/12/05 04:56:42;;;;;;;8.60;5.82;;;;;;;6.76;58.75;94690.88;5025620;28;20469;-76
2022/12/05 04:59:08;;;;;;;10.95;5.57;;;;;;;6.75;58.40;94694.56;5028280;28;20513;-75
2022/12/05 05:01:40;;;;;;;9.68;6.00;;;;;;;6.66;58.63;94680.31;5026636;28;20045;-76
2022/12/05 05:04:11;;;;;;;10.65;5.55;;;;;;;6.54;58.76;94671.09;5018512;28;20778;-76
2022/12/05 05:06:38;;;;;;;8.70;5.18;;;;;;;6.75;58.76;94699.84;5028382;28;20370;-75
2022/12/05 05:09:04;;;;;;;8.75;5.60;;;;;;;6.68;58.93;94688.78;5026704;28;20521;-76
2022/12/05 05:11:32;;;;;;;8.88;5.00;;;;;;;6.62;58.75;94673.97;5009979;28;20099;-76
2022/12/05 05:13:58;;;;;;;8.27;5.20;;;;;;;6.76;58.71;94704.09;5026229;28;20174;-75
2022/12/05 05:16:35;;;;;;;9.20;5.20;;;;;;;6.66;58.59;94690.88;5026980;28;20170;-75
2022/12/05 05:19:01;;;;;;;12.30;6.13;;;;;;;6.74;58.50;94714.16;5027446;28;20103;-75
2022/12/05 05:21:30;;;;;;;10.68;6.10;;;;;;;6.73;58.54;94711.78;5009523;28;20519;-76
2022/12/05 05:23:57;;;;;;;11.85;6.60;;;;;;;6.57;58.79;94695.13;5027890;28;20033;-76
2022/12/05 05:26:23;;;;;;;10.40;6.00;;;;;;;6.79;58.90;94722.09;5026800;28;20781;-76
2022/12/05 05:28:49;;;;;;;11.55;5.25;;;;;;;6.78;58.75;94720.50;5012030;28;20041;-76
2022/12/05 05:31:16;;;;;;;10.70;5.53;;;;;;;6.80;58.72;94728.13;5013896;28;20095;-76
2022/12/05 05:33:42;;;;;;;11.75;6.22;;;;;;;6.70;58.13;94704.38;5028088;28;20029;-76
2022/12/05 05:36:14;;;;;;;12.20;6.30;;;;;;;6.79;58.24;94724.72;5025069;28;20028;-76
2022/12/05 05:38:45;;;;;;;9.57;6.25;;;;;;;6.81;58.19;94725.25;5028976;28;20064;-77
2022/12/05 05:41:34;;;;;;;12.32;6.63;;;;;;;6.76;58.38;94714.66;5025438;28;20036;-74
2022/12/05 05:44:00;;;;;;;12.48;6.45;;;;;;;6.70;58.36;94707.78;5017374;28;20120;-76
2022/12/05 05:46:29;;;;;;;7.93;4.97;;;;;;;6.81;58.45;94722.59;5029120;28;20414;-75
2022/12/05 05:48:55;;;;;;;7.68;5.28;;;;;;;6.83;58.51;94714.41;5029031;28;20068;-76
2022/12/05 05:51:22;;;;;;;7.93;4.97;;;;;;;6.80;58.38;94726.28;5028761;28;20138;-75
2022/12/05 05:53:48;;;;;;;10.85;5.32;;;;;;;6.68;58.34;94707.28;5019481;28;20146;-75
2022/12/05 05:56:19;;;;;;;8.75;5.30;;;;;;;6.68;58.34;94720.50;5012332;28;20033;-76
2022/12/05 05:58:44;;;;;;;7.85;4.82;;;;;;;6.76;58.13;94733.19;5013952;28;20036;-75
2022/12/05 06:01:16;;;;;;;9.13;5.78;;;;;;;6.70;57.94;94728.94;5029470;28;20045;-76
2022/12/05 06:03:42;;;;;;;10.90;5.10;;;;;;;6.41;58.35;94685.63;5031211;28;20029;-75
2022/12/05 06:06:11;;;;;;;9.98;5.40;;;;;;;6.70;58.31;94731.59;5029319;28;20046;-75
2022/12/05 06:08:39;;;;;;;14.57;5.97;;;;;;;6.64;58.58;94730.03;5012205;28;20050;-76
2022/12/05 06:11:10;;;;;;;8.68;5.25;;;;;;;6.60;58.62;94720.25;5014149;28;20049;-76
2022/12/05 06:13:36;;;;;;;8.25;5.30;;;;;;;6.74;58.44;94740.59;5003124;28;20052;-77
2022/12/05 06:16:03;;;;;;;10.35;5.95;;;;;;;6.63;58.35;94723.16;5015386;28;20022;-75
2022/12/05 06:18:28;;;;;;;12.48;6.80;;;;;;;6.80;58.34;94739.50;5030651;28;20508;-76
2022/12/05 06:20:57;;;;;;;15.02;8.70;;;;;;;6.66;58.34;94717.31;5030127;28;20036;-76
2022/12/05 06:23:24;;;;;;;12.35;7.50;;;;;;;6.83;58.16;94741.66;5031112;28;20030;-76
2022/12/05 06:25:52;;;;;;;13.85;7.30;;;;;;;6.47;58.15;94689.06;5031830;28;20048;-76
2022/12/05 06:28:19;;;;;;;10.23;5.88;;;;;;;6.75;57.96;94736.88;5031113;28;20041;-76
2022/12/05 06:30:45;;;;;;;11.35;6.80;;;;;;;6.73;58.11;94741.66;5014529;28;20034;-76
2022/12/05 06:33:11;;;;;;;11.02;6.43;;;;;;;6.70;58.47;94739.53;5010758;28;20156;-76
2022/12/05 06:35:36;;;;;;;9.82;5.90;;;;;;;6.70;58.41;94734.25;5030444;28;20500;-77
2022/12/05 06:38:04;;;;;;;8.98;4.97;;;;;;;6.57;58.54;94710.19;5026807;28;20051;-76
2022/12/05 06:40:30;;;;;;;8.50;5.50;;;;;;;6.65;58.64;94728.19;5022925;28;20036;-76
2022/12/05 06:42:55;;;;;;;11.40;6.35;;;;;;;6.81;58.59;94750.88;5023235;28;20025;-76
2022/12/05 06:45:20;;;;;;;8.20;5.95;;;;;;;6.55;58.52;94717.63;5022791;28;20032;-76
2022/12/05 06:47:46;;;;;;;10.98;5.30;;;;;;;6.56;58.50;94722.63;5006635;28;20103;-75
2022/12/05 06:50:12;;;;;;;11.02;5.78;;;;;;;6.64;58.70;94732.69;5023694;28;20048;-76
2022/12/05 06:52:37;;;;;;;10.77;6.93;;;;;;;6.65;58.92;94744.81;5010967;28;20097;-76
2022/12/05 06:55:03;;;;;;;14.27;7.10;;;;;;;6.36;58.99;94720.78;5030271;28;20025;-76
2022/12/05 06:57:28;;;;;;;12.60;6.93;;;;;;;6.56;59.27;94738.47;5027442;28;20499;-76
2022/12/05 07:01:37;;;;;;;13.60;7.32;;;;;;;6.57;59.42;94740.06;5026752;28;20033;-76
2022/12/05 07:02:40;;;;;;;14.55;7.70;;;;;;;6.54;59.57;94745.91;5021044;28;20391;-75
2022/12/05 07:05:07;;;;;;;12.15;7.65;;;;;;;6.23;59.82;94712.59;5016637;28;20095;-76
2022/12/05 07:07:32;;;;;;;10.63;7.15;;;;;;;6.43;59.90;94747.75;5025310;28;20037;-76
2022/12/05 07:09:58;;;;;;;12.82;7.78;;;;;;;6.56;60.05;94753.53;5016458;28;20036;-76
2022/12/05 07:12:23;;;;;;;17.33;8.90;;;;;;;6.57;60.21;94739.28;5021149;28;20020;-76
2022/12/05 07:14:49;;;;;;;12.15;7.28;;;;;;;6.62;59.93;94745.34;5024495;28;20038;-76
2022/12/05 07:17:15;;;;;;;11.93;7.47;;;;;;;6.40;59.84;94734.28;5026551;28;20351;-76
2022/12/05 07:19:40;;;;;;;8.20;6.60;;;;;;;6.49;60.41;94756.47;5017789;28;20677;-76
2022/12/05 07:22:05;;;;;;;16.17;7.38;;;;;;;6.45;60.69;94758.06;5014292;28;20129;-76
2022/12/05 07:24:33;;;;;;;11.18;6.63;;;;;;;6.35;61.06;94748.28;5027036;28;20646;-76
2022/12/05 07:26:59;;;;;;;13.00;6.05;;;;;;;6.38;61.69;94768.88;5030636;28;20045;-76
2022/12/05 07:29:24;;;;;;;10.73;5.72;;;;;;;6.27;61.97;94766.47;5027878;28;20045;-75
2022/12/05 07:31:50;;;;;;;10.48;5.82;;;;;;;5.91;61.94;94713.59;5031547;28;20122;-75
2022/12/05 07:34:15;;;;;;;9.63;5.35;;;;;;;6.35;61.94;94764.13;5031040;28;20033;-76
2022/12/05 07:36:40;;;;;;;10.07;6.38;;;;;;;6.48;61.73;94776.00;5030550;28;20033;-76
2022/12/05 07:39:06;;;;;;;14.05;6.78;;;;;;;6.44;61.69;94753.81;5032645;28;20044;-76
2022/12/05 07:41:32;;;;;;;10.02;6.90;;;;;;;6.39;61.54;94753.81;5032815;28;20080;-77
2022/12/05 07:43:59;;;;;;;9.07;6.07;;;;;;;6.37;62.01;94766.47;5028688;28;20033;-76
2022/12/05 07:46:26;;;;;;;12.57;7.03;;;;;;;6.43;61.77;94773.38;5032395;28;20045;-75
2022/12/05 07:48:51;;;;;;;7.72;5.55;;;;;;;5.64;63.08;94720.91;5011369;28;20036;-76
2022/12/05 07:51:26;;;;;;;10.85;5.82;;;;;;;6.02;63.54;94790.19;5028524;28;20048;-76
2022/12/05 07:53:51;;;;;;;10.27;5.68;;;;;;;5.92;64.05;94781.16;5025061;28;20637;-75
2022/12/05 07:56:17;;;;;;;9.88;7.00;;;;;;;5.98;63.75;94785.41;5032265;28;20544;-76
2022/12/05 07:58:45;;;;;;;10.77;6.22;;;;;;;5.83;64.45;94766.88;5029787;28;20110;-76
2022/12/05 08:01:17;;;;;;;10.90;6.38;;;;;;;5.85;64.39;94779.84;5029007;28;20049;-76
2022/12/05 08:03:43;;;;;;;10.07;6.20;;;;;;;5.93;64.80;94772.19;5030419;28;20108;-75
2022/12/05 08:06:11;;;;;;;8.73;5.60;;;;;;;5.40;65.34;94727.69;5030025;28;20184;-77
2022/12/05 08:08:37;;;;;;;9.07;5.50;;;;;;;5.36;65.83;94739.81;5011534;28;20686;-76
2022/12/05 08:11:12;;;;;;;10.55;6.57;;;;;;;5.66;66.09;94776.06;5027388;28;20140;-76
2022/12/05 08:13:38;;;;;;;21.00;5.68;;;;;;;5.86;65.06;94776.94;5014990;28;20040;-76
2022/12/05 08:16:06;;;;;;;10.38;5.97;;;;;;;5.96;64.49;94779.63;5028311;28;20029;-77
2022/12/05 08:18:32;;;;;;;8.95;5.60;;;;;;;5.62;64.74;94781.09;5022188;28;20039;-76
2022/12/05 08:21:03;;;;;;;6.97;3.97;;;;;;;5.73;64.05;94777.41;5031150;28;20030;-75
2022/12/05 08:23:30;;;;;;;4.35;3.20;;;;;;;5.14;64.04;94726.78;5029906;28;20073;-76
2022/12/05 08:25:55;;;;;;;4.38;2.67;;;;;;;5.30;64.39;94767.19;5028237;28;20067;-76
2022/12/05 08:28:21;;;;;;;8.38;3.55;;;;;;;5.54;64.36;94774.44;5028662;28;20045;-76
2022/12/05 08:30:46;;;;;;;6.03;3.47;;;;;;;5.51;64.32;94758.34;5031122;28;20032;-77
2022/12/05 08:33:11;;;;;;;9.52;4.53;;;;;;;5.55;64.35;94775.25;5028812;28;20580;-77
2022/12/05 08:35:37;;;;;;;12.27;5.35;;;;;;;5.46;65.44;94782.06;5013916;28;20056;-76
2022/12/05 08:38:02;;;;;;;13.70;6.05;;;;;;;5.36;66.02;94782.00;5027042;28;20044;-76
2022/12/05 08:40:28;;;;;;;10.38;5.38;;;;;;;5.51;65.65;94771.53;5031030;28;20032;-76
2022/12/05 08:42:53;;;;;;;9.93;5.63;;;;;;;5.71;65.57;94779.53;5029929;28;20050;-77
2022/12/05 08:45:18;;;;;;;12.32;5.82;;;;;;;5.76;65.36;94776.91;5019439;28;20025;-75
2022/12/05 08:47:44;;;;;;;8.38;4.85;;;;;;;5.88;64.47;94764.25;5031057;28;20049;-76
2022/12/05 08:50:10;;;;;;;10.05;4.47;;;;;;;5.72;64.18;94753.94;5010262;28;20036;-76
2022/12/05 08:52:35;;;;;;;7.03;4.43;;;;;;;5.77;64.19;94752.09;5027662;28;20037;-76
2022/12/05 08:55:00;;;;;;;8.45;4.82;;;;;;;5.64;64.67;94764.97;5027232;28;20315;-77
2022/12/05 08:57:26;;;;;;;9.60;5.57;;;;;;;5.63;65.51;94782.66;5030002;28;20025;-76
2022/12/05 08:59:51;;;;;;;12.40;5.78;;;;;;;5.28;65.26;94735.03;5026328;28;21122;-76
2022/12/05 09:02:16;;;;;;;10.13;4.72;;;;;;;5.34;66.17;94778.81;5025895;28;20037;-77
2022/12/05 09:04:42;;;;;;;7.95;4.90;;;;;;;5.34;65.81;94758.53;5029434;28;20121;-75
2022/12/05 09:07:07;;;;;;;9.73;5.65;;;;;;;5.50;66.09;94777.84;5030164;28;20120;-75
2022/12/05 09:09:33;;;;;;;15.93;5.88;;;;;;;5.51;65.85;94751.22;5028503;28;20627;-77
2022/12/05 09:11:59;;;;;;;6.88;4.55;;;;;;;5.64;65.85;94776.31;5016758;28;20099;-76
2022/12/05 09:14:31;;;;;;;10.02;4.03;;;;;;;5.78;65.25;94771.34;5029443;28;20083;-76
2022/12/05 09:16:57;;;;;;;8.20;3.60;;;;;;;5.80;65.33;94777.97;5017888;28;20033;-76
2022/12/05 09:19:24;;;;;;;7.13;4.15;;;;;;;5.41;65.09;94745.09;5009408;28;20451;-76
2022/12/05 09:21:50;;;;;;;8.85;4.25;;;;;;;5.72;65.37;94770.56;5025845;28;20052;-76
2022/12/05 09:24:15;;;;;;;7.00;3.45;;;;;;;5.25;65.08;94733.69;5010694;28;20202;-76
2022/12/05 09:26:41;;;;;;;9.32;3.92;;;;;;;5.39;65.70;94770.94;5026845;28;20056;-76
2022/12/05 09:29:08;;;;;;;11.20;4.43;;;;;;;5.55;65.88;94770.75;5034785;28;20041;-77
2022/12/05 09:31:33;;;;;;;5.28;3.47;;;;;;;5.55;65.45;94764.69;5029680;28;20040;-76
2022/12/05 09:34:00;;;;;;;5.45;3.90;;;;;;;5.49;65.28;94765.72;5021026;28;20051;-76
2022/12/05 09:36:28;;;;;;;9.23;4.07;;;;;;;5.61;65.15;94757.59;5032188;28;20526;-76
2022/12/05 09:38:54;;;;;;;7.70;5.20;;;;;;;5.68;64.77;94760.75;5022704;28;20040;-76
2022/12/05 09:44:47;;;;;;;11.20;4.72;;;;;;;5.91;63.73;94757.69;5034180;28;20632;-76
2022/12/05 09:47:25;;;;;;;6.50;4.10;;;;;;;5.68;63.96;94752.84;5035490;28;20129;-77
2022/12/05 09:49:56;;;;;;;5.35;3.50;;;;;;;5.41;64.20;94705.53;5022359;28;20104;-76
2022/12/05 09:52:32;;;;;;;5.57;3.80;;;;;;;5.79;63.38;94718.31;5031909;28;20045;-76
2022/12/05 09:55:12;;;;;;;6.88;4.28;;;;;;;5.96;63.13;94733.94;5023531;28;20437;-76
2022/12/05 09:57:43;;;;;;;5.25;4.07;;;;;;;5.79;63.95;94739.44;5032139;28;20113;-75
2022/12/05 10:00:10;;;;;;;6.03;4.57;;;;;;;5.67;64.22;94735.44;5033244;28;20037;-76
2022/12/05 10:02:39;;;;;;;7.97;3.90;;;;;;;5.81;64.42;94742.59;5031613;28;20053;-75
2022/12/05 10:05:12;;;;;;;10.50;5.53;;;;;;;5.59;65.11;94739.34;5025898;28;20053;-76
2022/12/05 10:08:04;;;;;;;11.55;5.95;;;;;;;5.50;64.92;94719.81;5030853;28;20041;-76
2022/12/05 10:10:30;;;;;;;10.07;5.47;;;;;;;5.61;65.08;94728.56;5026408;28;20143;-76
2022/12/05 10:12:58;;;;;;;10.45;5.15;;;;;;;5.43;65.69;94725.31;5030277;28;20558;-76
2022/12/05 10:15:36;;;;;;;14.65;8.35;;;;;;;5.38;66.16;94727.94;5036605;28;20480;-77
2022/12/05 10:18:04;;;;;;;11.02;7.03;;;;;;;5.54;65.86;94726.16;5032114;28;20466;-76
2022/12/05 10:20:45;;;;;;;8.65;5.82;;;;;;;5.90;65.21;94724.41;5032676;28;20586;-76
2022/12/05 10:23:17;;;;;;;9.20;5.78;;;;;;;5.74;64.44;94699.81;5031815;28;20159;-76
2022/12/05 10:25:43;;;;;;;7.88;5.03;;;;;;;5.62;64.41;94696.63;5046991;28;20037;-76
2022/12/05 10:28:23;;;;;;;7.03;5.55;;;;;;;5.90;64.35;94719.91;5029860;28;20494;-76
2022/12/05 10:30:52;;;;;;;18.45;5.90;;;;;;;6.10;63.86;94710.44;5030137;28;20017;-78
2022/12/05 10:33:20;;;;;;;10.15;6.13;;;;;;;5.93;63.59;94708.81;5030218;28;20095;-76
2022/12/05 10:35:52;;;;;;;7.78;5.15;;;;;;;6.17;63.23;94718.91;5032998;28;20021;-76
2022/12/05 10:38:27;;;;;;;11.10;5.82;;;;;;;6.35;63.29;94713.94;5033328;28;20072;-76
2022/12/05 10:40:58;;;;;;;13.07;5.05;;;;;;;6.28;62.53;94707.31;5032755;28;20029;-76
2022/12/05 10:43:29;;;;;;;7.85;4.60;;;;;;;6.03;62.83;94708.03;5035783;28;20033;-75
2022/12/05 10:45:56;;;;;;;10.77;5.78;;;;;;;6.07;62.72;94687.97;5031495;28;20035;-76
2022/12/05 10:48:22;;;;;;;10.70;5.50;;;;;;;6.02;63.10;94695.13;5035869;28;20025;-76
2022/12/05 10:50:54;;;;;;;9.45;5.50;;;;;;;6.08;63.10;94696.69;5037391;28;20068;-76
2022/12/05 10:53:50;;;;;;;7.45;4.82;;;;;;;6.19;63.00;94700.97;5039321;28;20470;-75
2022/12/05 10:56:40;;;;;;;13.35;5.65;;;;;;;6.14;63.01;94698.28;5033361;28;20128;-76
2022/12/05 10:59:08;;;;;;;10.23;5.03;;;;;;;6.08;62.91;94689.56;5032498;28;20052;-77
2022/12/05 11:01:35;;;;;;;9.40;6.15;;;;;;;5.79;64.07;94664.72;5030891;28;20048;-76
2022/12/05 11:04:09;;;;;;;8.63;5.18;;;;;;;6.06;63.32;94659.22;5032762;28;20044;-76
2022/12/05 11:06:35;;;;;;;12.68;6.38;;;;;;;6.07;63.57;94687.97;5031581;28;20095;-76
2022/12/05 11:09:18;;;;;;;7.30;4.50;;;;;;;6.16;63.02;94688.28;5030515;28;20120;-76
2022/12/05 11:11:57;;;;;;;8.45;5.40;;;;;;;6.29;62.74;94669.25;5033141;28;20559;-76
2022/12/05 11:14:24;;;;;;;8.32;4.88;;;;;;;6.41;62.01;94688.28;5032282;28;20037;-77
2022/12/05 11:16:56;;;;;;;8.60;5.05;;;;;;;6.23;63.27;94668.47;5033037;28;20413;-76
2022/12/05 11:19:21;;;;;;;7.93;4.32;;;;;;;6.16;62.85;94683.00;5038786;28;20033;-76
2022/12/05 11:21:48;;;;;;;6.70;3.95;;;;;;;6.02;63.11;94652.88;5030799;28;20036;-77
2022/12/05 11:24:27;;;;;;;8.20;4.53;;;;;;;6.17;63.02;94671.38;5031212;28;20400;-76
2022/12/05 11:26:52;;;;;;;8.38;4.97;;;;;;;6.01;63.08;94654.72;5044617;28;20072;-77
2022/12/05 11:29:32;;;;;;;6.95;4.57;;;;;;;6.33;62.99;94672.97;5033045;28;20037;-76
2022/12/05 11:31:58;;;;;;;7.20;5.15;;;;;;;6.18;62.98;94672.97;5048602;28;20128;-76
2022/12/05 11:34:30;;;;;;;9.85;5.28;;;;;;;6.22;63.14;94663.44;5033256;28;20495;-76
2022/12/05 11:37:03;;;;;;;6.55;4.15;;;;;;;5.90;62.96;94646.00;5030261;28;20028;-76
2022/12/05 11:39:28;;;;;;;7.88;4.70;;;;;;;6.08;62.65;94625.38;5029043;28;20033;-76
2022/12/05 11:42:07;;;;;;;10.23;5.30;;;;;;;5.99;63.21;94639.13;5035446;28;20400;-76
2022/12/05 11:45:04;;;;;;;6.50;4.70;;;;;;;6.17;63.05;94650.25;5032362;28;20041;-76
2022/12/05 11:47:44;;;;;;;7.07;4.80;;;;;;;6.02;63.68;94637.03;5034106;28;20041;-76
2022/12/05 11:50:26;;;;;;;7.25;4.45;;;;;;;6.00;63.80;94643.34;5018547;28;20451;-77
2022/12/05 11:53:00;;;;;;;7.70;4.90;;;;;;;5.92;64.46;94633.31;5032427;28;20087;-77
2022/12/05 11:55:36;;;;;;;17.17;5.80;;;;;;;5.79;65.02;94633.84;5025792;28;20076;-76
2022/12/05 11:58:24;;;;;;;10.00;5.22;;;;;;;5.86;65.41;94637.03;5024727;28;20076;-76